Buffalo Lake, Minnesota
Current Conditions -  °F | °C
As of 1:32 PM on Tuesday 21 Oct 2014 (Local Time) from KHCD Reporting Station
Clear Clear  
Wind Chill: 60°   Ceiling: Unl
Heat Index: 60°   Visibility: 10mi
Dew Point: 44°   Wind: 14mph
Humidity: 56%   Direction: 120°ESE
Pressure: 30.13"   Gusts: NA
Location:  44.74°N, 94.62°W
Report Text: KHCD 211832Z AUTO 12012KT 10SM CLR 15/07 A3013 RMK AO2 T01540066
Loading
Personal Weather Stations






























Interactive Weather Map
Tropical Storm Tracking
New forecast layout! Learn more

10-Day Weather Forecast

Advertisements
Track Severe Weather on mobile